Akhtubinsk, Russia
Current Conditions -  °F | °C
As of 9:30 PM on Wednesday 26 Nov 2014 (Local Time) from URWW Reporting Station
Clear Clear  
Wind Chill:   Ceiling: Unl
Heat Index: 18°   Visibility: 6mi
Dew Point:   Wind: 13mph
Humidity: 45%   Direction: 70°ENE
Pressure: 30.39"   Gusts: NA
Location:  48.28°N, 46.17°E
Report Text: URWW 261830Z 07006MPS CAVOK M08/M18 Q1029 NOSIG RMK 11CLRD70
Loading
Personal Weather Stations






























Interactive Weather Map New forecast layout! Learn more

10-Day Weather Forecast

Advertisements
Track Severe Weather on mobile